sensor_id;sensor_type;location;lat;lon;timestamp;temperature;humidity
46159;DHT22;31888;44.512;26.104;2023-08-20T00:02:01;23.30;90.40
46159;DHT22;31888;44.512;26.104;2023-08-20T00:04:26;23.40;90.40
46159;DHT22;31888;44.512;26.104;2023-08-20T00:06:50;23.40;90.30
46159;DHT22;31888;44.512;26.104;2023-08-20T00:09:14;23.30;90.30
46159;DHT22;31888;44.512;26.104;2023-08-20T00:11:41;23.30;90.30
46159;DHT22;31888;44.512;26.104;2023-08-20T00:14:06;23.30;90.40
46159;DHT22;31888;44.512;26.104;2023-08-20T00:16:31;23.30;90.40
46159;DHT22;31888;44.512;26.104;2023-08-20T00:18:55;23.30;90.50
46159;DHT22;31888;44.512;26.104;2023-08-20T00:21:20;23.30;90.40
46159;DHT22;31888;44.512;26.104;2023-08-20T00:23:44;23.30;90.50
46159;DHT22;31888;44.512;26.104;2023-08-20T00:26:08;23.20;90.60
46159;DHT22;31888;44.512;26.104;2023-08-20T00:28:33;23.20;90.70
46159;DHT22;31888;44.512;26.104;2023-08-20T00:31:01;23.20;90.70
46159;DHT22;31888;44.512;26.104;2023-08-20T00:33:25;23.20;90.60
46159;DHT22;31888;44.512;26.104;2023-08-20T00:35:49;23.20;90.70
46159;DHT22;31888;44.512;26.104;2023-08-20T00:38:13;23.20;90.80
46159;DHT22;31888;44.512;26.104;2023-08-20T00:40:37;23.10;90.80
46159;DHT22;31888;44.512;26.104;2023-08-20T00:43:01;23.10;90.90
46159;DHT22;31888;44.512;26.104;2023-08-20T00:45:25;23.00;91.00
46159;DHT22;31888;44.512;26.104;2023-08-20T00:47:52;23.00;91.10
46159;DHT22;31888;44.512;26.104;2023-08-20T00:50:17;23.00;91.20
46159;DHT22;31888;44.512;26.104;2023-08-20T00:52:41;22.90;91.30
46159;DHT22;31888;44.512;26.104;2023-08-20T00:55:08;22.70;91.60
46159;DHT22;31888;44.512;26.104;2023-08-20T00:57:32;22.60;91.80
46159;DHT22;31888;44.512;26.104;2023-08-20T00:59:58;22.50;92.00
46159;DHT22;31888;44.512;26.104;2023-08-20T01:02:23;22.50;92.10
46159;DHT22;31888;44.512;26.104;2023-08-20T01:04:50;22.40;92.20
46159;DHT22;31888;44.512;26.104;2023-08-20T01:07:20;22.40;92.30
46159;DHT22;31888;44.512;26.104;2023-08-20T01:09:50;22.50;92.40
46159;DHT22;31888;44.512;26.104;2023-08-20T01:12:19;22.40;92.40
46159;DHT22;31888;44.512;26.104;2023-08-20T01:14:46;22.40;92.50
46159;DHT22;31888;44.512;26.104;2023-08-20T01:17:10;22.50;92.50
46159;DHT22;31888;44.512;26.104;2023-08-20T01:19:36;22.50;92.50
46159;DHT22;31888;44.512;26.104;2023-08-20T01:22:14;22.40;92.70
46159;DHT22;31888;44.512;26.104;2023-08-20T01:24:50;22.40;93.50
46159;DHT22;31888;44.512;26.104;2023-08-20T01:27:28;22.40;93.30
46159;DHT22;31888;44.512;26.104;2023-08-20T01:30:00;22.40;93.50
46159;DHT22;31888;44.512;26.104;2023-08-20T01:32:26;22.30;93.60
46159;DHT22;31888;44.512;26.104;2023-08-20T01:34:50;22.40;93.50
46159;DHT22;31888;44.512;26.104;2023-08-20T01:37:15;22.40;93.40
46159;DHT22;31888;44.512;26.104;2023-08-20T01:39:39;22.40;93.20
46159;DHT22;31888;44.512;26.104;2023-08-20T01:42:04;22.30;93.00
46159;DHT22;31888;44.512;26.104;2023-08-20T01:44:30;22.30;93.20
46159;DHT22;31888;44.512;26.104;2023-08-20T01:46:55;22.30;93.30
46159;DHT22;31888;44.512;26.104;2023-08-20T01:49:19;22.30;93.30
46159;DHT22;31888;44.512;26.104;2023-08-20T01:51:42;22.20;93.30
46159;DHT22;31888;44.512;26.104;2023-08-20T01:54:07;22.20;93.40
46159;DHT22;31888;44.512;26.104;2023-08-20T01:56:30;22.10;93.50
46159;DHT22;31888;44.512;26.104;2023-08-20T01:58:54;22.00;93.50
46159;DHT22;31888;44.512;26.104;2023-08-20T02:01:18;22.10;93.60
46159;DHT22;31888;44.512;26.104;2023-08-20T02:03:44;22.00;93.70
46159;DHT22;31888;44.512;26.104;2023-08-20T02:06:08;21.90;93.80
46159;DHT22;31888;44.512;26.104;2023-08-20T02:08:32;21.90;93.80
46159;DHT22;31888;44.512;26.104;2023-08-20T02:11:00;21.90;93.90
46159;DHT22;31888;44.512;26.104;2023-08-20T02:13:25;21.80;94.00
46159;DHT22;31888;44.512;26.104;2023-08-20T02:15:57;21.60;94.40
46159;DHT22;31888;44.512;26.104;2023-08-20T02:18:22;21.60;94.50
46159;DHT22;31888;44.512;26.104;2023-08-20T02:20:48;21.60;94.70
46159;DHT22;31888;44.512;26.104;2023-08-20T02:23:12;21.40;95.00
46159;DHT22;31888;44.512;26.104;2023-08-20T02:25:36;21.30;95.30
46159;DHT22;31888;44.512;26.104;2023-08-20T02:28:00;21.30;95.50
46159;DHT22;31888;44.512;26.104;2023-08-20T02:30:25;21.30;95.50
46159;DHT22;31888;44.512;26.104;2023-08-20T02:32:49;21.30;95.60
46159;DHT22;31888;44.512;26.104;2023-08-20T02:35:14;21.20;95.60
46159;DHT22;31888;44.512;26.104;2023-08-20T02:37:40;21.30;96.10
46159;DHT22;31888;44.512;26.104;2023-08-20T02:40:07;21.30;95.80
46159;DHT22;31888;44.512;26.104;2023-08-20T02:42:33;21.30;95.80
46159;DHT22;31888;44.512;26.104;2023-08-20T02:44:57;21.30;95.90
46159;DHT22;31888;44.512;26.104;2023-08-20T02:47:21;21.40;95.80
46159;DHT22;31888;44.512;26.104;2023-08-20T02:49:45;21.30;96.10
46159;DHT22;31888;44.512;26.104;2023-08-20T02:52:09;21.30;96.00
46159;DHT22;31888;44.512;26.104;2023-08-20T02:54:34;21.30;96.20
46159;DHT22;31888;44.512;26.104;2023-08-20T02:56:59;21.30;96.00
46159;DHT22;31888;44.512;26.104;2023-08-20T02:59:23;21.20;95.80
46159;DHT22;31888;44.512;26.104;2023-08-20T03:01:47;21.20;96.00
46159;DHT22;31888;44.512;26.104;2023-08-20T03:04:11;21.10;96.10
46159;DHT22;31888;44.512;26.104;2023-08-20T03:06:35;20.90;96.50
46159;DHT22;31888;44.512;26.104;2023-08-20T03:08:59;20.80;96.70
46159;DHT22;31888;44.512;26.104;2023-08-20T03:11:24;20.70;97.30
46159;DHT22;31888;44.512;26.104;2023-08-20T03:13:48;20.60;95.80
46159;DHT22;31888;44.512;26.104;2023-08-20T03:16:12;20.60;93.80
46159;DHT22;31888;44.512;26.104;2023-08-20T03:18:36;20.60;97.00
46159;DHT22;31888;44.512;26.104;2023-08-20T03:21:00;20.50;97.40
46159;DHT22;31888;44.512;26.104;2023-08-20T03:23:25;20.50;97.90
46159;DHT22;31888;44.512;26.104;2023-08-20T03:25:49;20.40;98.20
46159;DHT22;31888;44.512;26.104;2023-08-20T03:28:15;20.60;98.10
46159;DHT22;31888;44.512;26.104;2023-08-20T03:30:39;20.70;97.70
46159;DHT22;31888;44.512;26.104;2023-08-20T03:33:04;20.80;97.70
46159;DHT22;31888;44.512;26.104;2023-08-20T03:35:31;20.60;98.00
46159;DHT22;31888;44.512;26.104;2023-08-20T03:37:56;20.40;98.20
46159;DHT22;31888;44.512;26.104;2023-08-20T03:40:20;20.30;98.40
46159;DHT22;31888;44.512;26.104;2023-08-20T03:42:45;20.40;98.40
46159;DHT22;31888;44.512;26.104;2023-08-20T03:45:13;20.50;98.30
46159;DHT22;31888;44.512;26.104;2023-08-20T03:47:37;20.40;98.40
46159;DHT22;31888;44.512;26.104;2023-08-20T03:50:01;20.40;98.50
46159;DHT22;31888;44.512;26.104;2023-08-20T03:52:26;20.40;98.60
46159;DHT22;31888;44.512;26.104;2023-08-20T03:54:50;20.60;98.30
46159;DHT22;31888;44.512;26.104;2023-08-20T03:57:14;20.60;98.30
46159;DHT22;31888;44.512;26.104;2023-08-20T03:59:39;20.80;98.00
46159;DHT22;31888;44.512;26.104;2023-08-20T04:02:05;21.10;97.70
46159;DHT22;31888;44.512;26.104;2023-08-20T04:04:29;21.40;97.20
46159;DHT22;31888;44.512;26.104;2023-08-20T04:06:54;21.80;96.70
46159;DHT22;31888;44.512;26.104;2023-08-20T04:09:18;21.70;96.20
46159;DHT22;31888;44.512;26.104;2023-08-20T04:11:41;22.00;96.20
46159;DHT22;31888;44.512;26.104;2023-08-20T04:14:05;22.20;95.70
46159;DHT22;31888;44.512;26.104;2023-08-20T04:16:30;22.30;95.40
46159;DHT22;31888;44.512;26.104;2023-08-20T04:18:55;22.70;95.10
46159;DHT22;31888;44.512;26.104;2023-08-20T04:21:19;23.10;94.40
46159;DHT22;31888;44.512;26.104;2023-08-20T04:23:44;23.70;93.50
46159;DHT22;31888;44.512;26.104;2023-08-20T04:26:08;23.90;92.90
46159;DHT22;31888;44.512;26.104;2023-08-20T04:28:33;24.40;92.30
46159;DHT22;31888;44.512;26.104;2023-08-20T04:30:57;24.90;91.60
46159;DHT22;31888;44.512;26.104;2023-08-20T04:33:32;25.20;90.90
46159;DHT22;31888;44.512;26.104;2023-08-20T04:35:57;25.40;90.50
46159;DHT22;31888;44.512;26.104;2023-08-20T04:38:22;25.70;90.10
46159;DHT22;31888;44.512;26.104;2023-08-20T04:40:46;25.90;89.70
46159;DHT22;31888;44.512;26.104;2023-08-20T04:43:10;26.50;87.50
46159;DHT22;31888;44.512;26.104;2023-08-20T04:45:34;26.50;86.80
46159;DHT22;31888;44.512;26.104;2023-08-20T04:47:59;26.80;86.60
46159;DHT22;31888;44.512;26.104;2023-08-20T04:50:24;27.00;85.80
46159;DHT22;31888;44.512;26.104;2023-08-20T04:52:50;27.40;84.90
46159;DHT22;31888;44.512;26.104;2023-08-20T04:55:14;27.90;84.20
46159;DHT22;31888;44.512;26.104;2023-08-20T04:57:39;28.10;83.10
46159;DHT22;31888;44.512;26.104;2023-08-20T05:00:05;28.60;82.30
46159;DHT22;31888;44.512;26.104;2023-08-20T05:02:47;28.90;81.20
46159;DHT22;31888;44.512;26.104;2023-08-20T05:05:13;28.90;80.20
46159;DHT22;31888;44.512;26.104;2023-08-20T05:07:38;29.60;79.00
46159;DHT22;31888;44.512;26.104;2023-08-20T05:10:05;29.70;78.50
46159;DHT22;31888;44.512;26.104;2023-08-20T05:12:29;30.20;77.20
46159;DHT22;31888;44.512;26.104;2023-08-20T05:14:53;30.70;76.60
46159;DHT22;31888;44.512;26.104;2023-08-20T05:17:17;31.10;75.80
46159;DHT22;31888;44.512;26.104;2023-08-20T05:19:42;31.40;74.30
46159;DHT22;31888;44.512;26.104;2023-08-20T05:22:06;32.20;73.40
46159;DHT22;31888;44.512;26.104;2023-08-20T05:24:31;32.60;71.90
46159;DHT22;31888;44.512;26.104;2023-08-20T05:27:06;32.40;72.00
46159;DHT22;31888;44.512;26.104;2023-08-20T05:29:30;32.60;71.50
46159;DHT22;31888;44.512;26.104;2023-08-20T05:31:55;33.00;70.50
46159;DHT22;31888;44.512;26.104;2023-08-20T05:34:19;33.40;69.70
46159;DHT22;31888;44.512;26.104;2023-08-20T05:36:42;33.80;69.00
46159;DHT22;31888;44.512;26.104;2023-08-20T05:39:06;33.80;68.20
46159;DHT22;31888;44.512;26.104;2023-08-20T05:41:30;34.00;68.10
46159;DHT22;31888;44.512;26.104;2023-08-20T05:43:56;34.30;67.20
46159;DHT22;31888;44.512;26.104;2023-08-20T05:46:21;34.80;66.50
46159;DHT22;31888;44.512;26.104;2023-08-20T05:48:45;35.00;65.80
46159;DHT22;31888;44.512;26.104;2023-08-20T05:51:09;35.40;65.10
46159;DHT22;31888;44.512;26.104;2023-08-20T05:53:34;35.90;65.00
46159;DHT22;31888;44.512;26.104;2023-08-20T05:55:58;36.10;63.90
46159;DHT22;31888;44.512;26.104;2023-08-20T05:58:22;36.60;62.50
46159;DHT22;31888;44.512;26.104;2023-08-20T06:00:48;37.10;62.50
46159;DHT22;31888;44.512;26.104;2023-08-20T06:03:12;37.30;60.80
46159;DHT22;31888;44.512;26.104;2023-08-20T06:05:36;37.10;61.70
46159;DHT22;31888;44.512;26.104;2023-08-20T06:08:00;37.40;60.20
46159;DHT22;31888;44.512;26.104;2023-08-20T06:10:24;37.80;60.90
46159;DHT22;31888;44.512;26.104;2023-08-20T06:12:48;38.30;59.70
46159;DHT22;31888;44.512;26.104;2023-08-20T06:15:13;38.50;59.40
46159;DHT22;31888;44.512;26.104;2023-08-20T06:17:38;38.60;59.60
46159;DHT22;31888;44.512;26.104;2023-08-20T06:20:03;39.30;59.00
46159;DHT22;31888;44.512;26.104;2023-08-20T06:22:29;39.50;58.50
46159;DHT22;31888;44.512;26.104;2023-08-20T06:24:54;39.90;58.10
46159;DHT22;31888;44.512;26.104;2023-08-20T06:27:18;40.50;57.50
46159;DHT22;31888;44.512;26.104;2023-08-20T06:29:42;40.80;55.90
46159;DHT22;31888;44.512;26.104;2023-08-20T06:32:06;40.70;56.20
46159;DHT22;31888;44.512;26.104;2023-08-20T06:34:31;40.80;56.30
46159;DHT22;31888;44.512;26.104;2023-08-20T06:36:57;41.10;55.20
46159;DHT22;31888;44.512;26.104;2023-08-20T06:39:20;41.10;55.80
46159;DHT22;31888;44.512;26.104;2023-08-20T06:41:44;42.00;54.20
46159;DHT22;31888;44.512;26.104;2023-08-20T06:44:15;41.60;53.90
46159;DHT22;31888;44.512;26.104;2023-08-20T06:46:39;41.90;54.10
46159;DHT22;31888;44.512;26.104;2023-08-20T06:49:03;42.40;53.40
46159;DHT22;31888;44.512;26.104;2023-08-20T06:51:29;42.50;53.30
46159;DHT22;31888;44.512;26.104;2023-08-20T06:53:53;42.70;52.80
46159;DHT22;31888;44.512;26.104;2023-08-20T06:56:18;42.90;52.70
46159;DHT22;31888;44.512;26.104;2023-08-20T06:58:42;43.10;52.60
46159;DHT22;31888;44.512;26.104;2023-08-20T07:01:07;43.00;52.50
46159;DHT22;31888;44.512;26.104;2023-08-20T07:03:31;43.60;52.30
46159;DHT22;31888;44.512;26.104;2023-08-20T07:05:55;43.30;51.50
46159;DHT22;31888;44.512;26.104;2023-08-20T07:08:20;43.00;52.00
46159;DHT22;31888;44.512;26.104;2023-08-20T07:10:44;43.10;51.90
46159;DHT22;31888;44.512;26.104;2023-08-20T07:13:08;43.60;51.50
46159;DHT22;31888;44.512;26.104;2023-08-20T07:15:32;42.70;52.20
46159;DHT22;31888;44.512;26.104;2023-08-20T07:17:55;43.30;51.10
46159;DHT22;31888;44.512;26.104;2023-08-20T07:20:19;42.70;51.60
46159;DHT22;31888;44.512;26.104;2023-08-20T07:22:43;43.00;51.50
46159;DHT22;31888;44.512;26.104;2023-08-20T07:25:09;43.90;51.10
46159;DHT22;31888;44.512;26.104;2023-08-20T07:27:33;43.60;50.80
46159;DHT22;31888;44.512;26.104;2023-08-20T07:29:57;43.20;51.10
46159;DHT22;31888;44.512;26.104;2023-08-20T07:32:21;43.00;50.70
46159;DHT22;31888;44.512;26.104;2023-08-20T07:34:45;43.30;51.40
46159;DHT22;31888;44.512;26.104;2023-08-20T07:37:09;43.60;50.80
46159;DHT22;31888;44.512;26.104;2023-08-20T07:39:32;43.90;50.20
46159;DHT22;31888;44.512;26.104;2023-08-20T07:41:58;44.30;49.90
46159;DHT22;31888;44.512;26.104;2023-08-20T07:44:22;44.40;49.60
46159;DHT22;31888;44.512;26.104;2023-08-20T07:46:46;43.70;50.40
46159;DHT22;31888;44.512;26.104;2023-08-20T07:49:10;41.90;51.20
46159;DHT22;31888;44.512;26.104;2023-08-20T07:51:34;42.00;51.50
46159;DHT22;31888;44.512;26.104;2023-08-20T07:53:58;42.00;51.60
46159;DHT22;31888;44.512;26.104;2023-08-20T07:56:22;42.80;51.00
46159;DHT22;31888;44.512;26.104;2023-08-20T07:58:48;43.30;50.90
46159;DHT22;31888;44.512;26.104;2023-08-20T08:01:12;44.80;50.10
46159;DHT22;31888;44.512;26.104;2023-08-20T08:03:36;44.90;49.60
46159;DHT22;31888;44.512;26.104;2023-08-20T08:06:00;43.30;50.00
46159;DHT22;31888;44.512;26.104;2023-08-20T08:08:25;43.20;50.30
46159;DHT22;31888;44.512;26.104;2023-08-20T08:10:49;42.20;51.40
46159;DHT22;31888;44.512;26.104;2023-08-20T08:13:13;42.30;51.20
46159;DHT22;31888;44.512;26.104;2023-08-20T08:15:39;42.60;51.10
46159;DHT22;31888;44.512;26.104;2023-08-20T08:18:03;42.70;51.30
46159;DHT22;31888;44.512;26.104;2023-08-20T08:20:27;42.00;51.40
46159;DHT22;31888;44.512;26.104;2023-08-20T08:22:51;42.50;51.60
46159;DHT22;31888;44.512;26.104;2023-08-20T08:25:15;42.70;51.20
46159;DHT22;31888;44.512;26.104;2023-08-20T08:27:39;42.40;51.30
46159;DHT22;31888;44.512;26.104;2023-08-20T08:30:21;41.40;52.20
46159;DHT22;31888;44.512;26.104;2023-08-20T08:32:47;40.30;53.40
46159;DHT22;31888;44.512;26.104;2023-08-20T08:35:11;39.80;53.90
46159;DHT22;31888;44.512;26.104;2023-08-20T08:37:35;39.00;54.80
46159;DHT22;31888;44.512;26.104;2023-08-20T08:39:59;38.90;55.20
46159;DHT22;31888;44.512;26.104;2023-08-20T08:42:24;37.70;55.70
46159;DHT22;31888;44.512;26.104;2023-08-20T08:44:48;36.80;57.30
46159;DHT22;31888;44.512;26.104;2023-08-20T08:47:13;36.30;58.50
46159;DHT22;31888;44.512;26.104;2023-08-20T08:49:38;36.50;58.00
46159;DHT22;31888;44.512;26.104;2023-08-20T08:52:03;36.50;58.10
46159;DHT22;31888;44.512;26.104;2023-08-20T08:54:28;36.20;58.30
46159;DHT22;31888;44.512;26.104;2023-08-20T08:56:52;35.70;58.70
46159;DHT22;31888;44.512;26.104;2023-08-20T08:59:16;35.40;59.30
46159;DHT22;31888;44.512;26.104;2023-08-20T09:01:41;35.70;59.00
46159;DHT22;31888;44.512;26.104;2023-08-20T09:04:05;36.00;58.50
46159;DHT22;31888;44.512;26.104;2023-08-20T09:06:44;36.00;58.30
46159;DHT22;31888;44.512;26.104;2023-08-20T09:09:08;34.90;59.20
46159;DHT22;31888;44.512;26.104;2023-08-20T09:11:34;34.80;60.10
46159;DHT22;31888;44.512;26.104;2023-08-20T09:13:59;34.60;60.70
46159;DHT22;31888;44.512;26.104;2023-08-20T09:16:29;34.90;59.40
46159;DHT22;31888;44.512;26.104;2023-08-20T09:18:53;35.20;59.70
46159;DHT22;31888;44.512;26.104;2023-08-20T09:21:17;35.20;58.60
46159;DHT22;31888;44.512;26.104;2023-08-20T09:23:45;34.30;59.40
46159;DHT22;31888;44.512;26.104;2023-08-20T09:26:10;34.00;59.70
46159;DHT22;31888;44.512;26.104;2023-08-20T09:28:41;34.10;59.50
46159;DHT22;31888;44.512;26.104;2023-08-20T09:31:05;33.90;60.40
46159;DHT22;31888;44.512;26.104;2023-08-20T09:33:32;33.60;60.90
46159;DHT22;31888;44.512;26.104;2023-08-20T09:35:56;33.70;60.90
46159;DHT22;31888;44.512;26.104;2023-08-20T09:38:21;34.10;60.10
46159;DHT22;31888;44.512;26.104;2023-08-20T09:40:49;34.10;60.00
46159;DHT22;31888;44.512;26.104;2023-08-20T09:43:16;34.00;59.70
46159;DHT22;31888;44.512;26.104;2023-08-20T09:45:40;34.10;59.50
46159;DHT22;31888;44.512;26.104;2023-08-20T09:48:06;34.20;58.60
46159;DHT22;31888;44.512;26.104;2023-08-20T09:50:32;34.40;58.60
46159;DHT22;31888;44.512;26.104;2023-08-20T09:53:06;34.40;58.60
46159;DHT22;31888;44.512;26.104;2023-08-20T09:55:33;34.40;58.70
46159;DHT22;31888;44.512;26.104;2023-08-20T09:57:59;34.10;58.20
46159;DHT22;31888;44.512;26.104;2023-08-20T10:00:25;34.00;58.50
46159;DHT22;31888;44.512;26.104;2023-08-20T10:02:51;34.30;58.90
46159;DHT22;31888;44.512;26.104;2023-08-20T10:05:16;34.60;58.30
46159;DHT22;31888;44.512;26.104;2023-08-20T10:07:40;34.90;57.70
46159;DHT22;31888;44.512;26.104;2023-08-20T10:10:07;34.80;57.50
46159;DHT22;31888;44.512;26.104;2023-08-20T10:12:31;34.40;58.20
46159;DHT22;31888;44.512;26.104;2023-08-20T10:15:00;34.60;58.10
46159;DHT22;31888;44.512;26.104;2023-08-20T10:17:24;34.80;57.80
46159;DHT22;31888;44.512;26.104;2023-08-20T10:19:48;34.80;58.00
46159;DHT22;31888;44.512;26.104;2023-08-20T10:22:12;35.00;58.70
46159;DHT22;31888;44.512;26.104;2023-08-20T10:24:47;35.00;58.10
46159;DHT22;31888;44.512;26.104;2023-08-20T10:27:12;35.10;57.10
46159;DHT22;31888;44.512;26.104;2023-08-20T10:29:37;34.80;57.90
46159;DHT22;31888;44.512;26.104;2023-08-20T10:32:06;34.80;57.80
46159;DHT22;31888;44.512;26.104;2023-08-20T10:34:32;34.60;56.80
46159;DHT22;31888;44.512;26.104;2023-08-20T10:36:58;34.50;57.90
46159;DHT22;31888;44.512;26.104;2023-08-20T10:39:25;34.60;58.20
46159;DHT22;31888;44.512;26.104;2023-08-20T10:41:49;34.40;57.60
46159;DHT22;31888;44.512;26.104;2023-08-20T10:44:56;34.60;57.80
46159;DHT22;31888;44.512;26.104;2023-08-20T10:47:22;35.00;57.60
46159;DHT22;31888;44.512;26.104;2023-08-20T10:49:51;35.00;57.50
46159;DHT22;31888;44.512;26.104;2023-08-20T10:52:15;35.00;55.90
46159;DHT22;31888;44.512;26.104;2023-08-20T10:54:41;34.90;56.50
46159;DHT22;31888;44.512;26.104;2023-08-20T10:57:05;34.70;57.00
46159;DHT22;31888;44.512;26.104;2023-08-20T10:59:29;34.70;57.60
46159;DHT22;31888;44.512;26.104;2023-08-20T11:01:55;34.50;57.40
46159;DHT22;31888;44.512;26.104;2023-08-20T11:04:22;34.30;58.10
46159;DHT22;31888;44.512;26.104;2023-08-20T11:06:52;34.60;58.10
46159;DHT22;31888;44.512;26.104;2023-08-20T11:09:16;34.70;57.70
46159;DHT22;31888;44.512;26.104;2023-08-20T11:11:41;34.70;56.60
46159;DHT22;31888;44.512;26.104;2023-08-20T11:14:07;34.70;57.00
46159;DHT22;31888;44.512;26.104;2023-08-20T11:16:31;34.80;57.00
46159;DHT22;31888;44.512;26.104;2023-08-20T11:18:55;35.10;57.10
46159;DHT22;31888;44.512;26.104;2023-08-20T11:21:22;35.10;56.10
46159;DHT22;31888;44.512;26.104;2023-08-20T11:23:46;35.10;56.20
46159;DHT22;31888;44.512;26.104;2023-08-20T11:26:12;34.90;56.50
46159;DHT22;31888;44.512;26.104;2023-08-20T11:28:36;34.80;57.30
46159;DHT22;31888;44.512;26.104;2023-08-20T11:31:01;34.70;56.00
46159;DHT22;31888;44.512;26.104;2023-08-20T11:33:25;34.70;55.90
46159;DHT22;31888;44.512;26.104;2023-08-20T11:35:50;34.60;56.00
46159;DHT22;31888;44.512;26.104;2023-08-20T11:38:16;34.40;56.30
46159;DHT22;31888;44.512;26.104;2023-08-20T11:40:40;34.60;56.30
46159;DHT22;31888;44.512;26.104;2023-08-20T11:43:04;34.80;55.80
46159;DHT22;31888;44.512;26.104;2023-08-20T11:45:28;35.00;55.80
46159;DHT22;31888;44.512;26.104;2023-08-20T11:47:56;35.10;55.50
46159;DHT22;31888;44.512;26.104;2023-08-20T11:50:20;35.20;55.60
46159;DHT22;31888;44.512;26.104;2023-08-20T11:52:45;35.20;55.60
46159;DHT22;31888;44.512;26.104;2023-08-20T11:55:10;35.30;56.10
46159;DHT22;31888;44.512;26.104;2023-08-20T11:57:34;35.40;55.80
46159;DHT22;31888;44.512;26.104;2023-08-20T12:00:00;35.20;55.60
46159;DHT22;31888;44.512;26.104;2023-08-20T12:02:35;35.10;55.40
46159;DHT22;31888;44.512;26.104;2023-08-20T12:05:02;35.10;56.00
46159;DHT22;31888;44.512;26.104;2023-08-20T12:07:27;34.90;55.30
46159;DHT22;31888;44.512;26.104;2023-08-20T12:09:50;34.90;56.10
46159;DHT22;31888;44.512;26.104;2023-08-20T12:12:19;34.70;54.90
46159;DHT22;31888;44.512;26.104;2023-08-20T12:14:43;34.80;55.40
46159;DHT22;31888;44.512;26.104;2023-08-20T12:17:07;34.80;55.50
46159;DHT22;31888;44.512;26.104;2023-08-20T12:19:31;34.80;55.70
46159;DHT22;31888;44.512;26.104;2023-08-20T12:21:55;34.90;55.70
46159;DHT22;31888;44.512;26.104;2023-08-20T12:24:19;35.00;55.90
46159;DHT22;31888;44.512;26.104;2023-08-20T12:26:43;35.10;55.20
46159;DHT22;31888;44.512;26.104;2023-08-20T12:29:09;35.00;55.30
46159;DHT22;31888;44.512;26.104;2023-08-20T12:31:33;35.10;55.70
46159;DHT22;31888;44.512;26.104;2023-08-20T12:33:57;35.20;55.80
46159;DHT22;31888;44.512;26.104;2023-08-20T12:36:21;35.30;55.20
46159;DHT22;31888;44.512;26.104;2023-08-20T12:38:45;35.20;55.00
46159;DHT22;31888;44.512;26.104;2023-08-20T12:41:09;35.20;54.80
46159;DHT22;31888;44.512;26.104;2023-08-20T12:43:33;35.30;54.20
46159;DHT22;31888;44.512;26.104;2023-08-20T12:45:58;35.10;54.60
46159;DHT22;31888;44.512;26.104;2023-08-20T12:48:22;34.80;55.00
46159;DHT22;31888;44.512;26.104;2023-08-20T12:50:46;34.70;54.80
46159;DHT22;31888;44.512;26.104;2023-08-20T12:53:10;34.70;54.90
46159;DHT22;31888;44.512;26.104;2023-08-20T12:55:35;34.70;55.20
46159;DHT22;31888;44.512;26.104;2023-08-20T12:57:59;34.70;55.70
46159;DHT22;31888;44.512;26.104;2023-08-20T13:00:24;34.80;55.50
46159;DHT22;31888;44.512;26.104;2023-08-20T13:02:50;34.90;55.70
46159;DHT22;31888;44.512;26.104;2023-08-20T13:05:15;35.00;55.50
46159;DHT22;31888;44.512;26.104;2023-08-20T13:07:39;35.00;55.30
46159;DHT22;31888;44.512;26.104;2023-08-20T13:10:04;35.10;54.80
46159;DHT22;31888;44.512;26.104;2023-08-20T13:12:29;35.00;55.30
46159;DHT22;31888;44.512;26.104;2023-08-20T13:14:56;35.00;55.80
46159;DHT22;31888;44.512;26.104;2023-08-20T13:17:20;35.00;55.30
46159;DHT22;31888;44.512;26.104;2023-08-20T13:19:45;35.00;55.50
46159;DHT22;31888;44.512;26.104;2023-08-20T13:22:09;35.00;55.30
46159;DHT22;31888;44.512;26.104;2023-08-20T13:24:33;35.10;55.50
46159;DHT22;31888;44.512;26.104;2023-08-20T13:26:57;35.10;55.00
46159;DHT22;31888;44.512;26.104;2023-08-20T13:29:20;35.20;55.40
46159;DHT22;31888;44.512;26.104;2023-08-20T13:31:44;35.30;55.60
46159;DHT22;31888;44.512;26.104;2023-08-20T13:34:08;35.40;55.50
46159;DHT22;31888;44.512;26.104;2023-08-20T13:36:34;35.20;55.60
46159;DHT22;31888;44.512;26.104;2023-08-20T13:39:00;35.20;55.30
46159;DHT22;31888;44.512;26.104;2023-08-20T13:41:25;35.20;55.00
46159;DHT22;31888;44.512;26.104;2023-08-20T13:43:49;35.30;55.40
46159;DHT22;31888;44.512;26.104;2023-08-20T13:46:13;35.20;55.30
46159;DHT22;31888;44.512;26.104;2023-08-20T13:48:37;35.20;55.50
46159;DHT22;31888;44.512;26.104;2023-08-20T13:51:01;34.90;55.20
46159;DHT22;31888;44.512;26.104;2023-08-20T13:53:27;34.90;55.80
46159;DHT22;31888;44.512;26.104;2023-08-20T13:55:50;34.90;55.60
46159;DHT22;31888;44.512;26.104;2023-08-20T13:58:14;34.90;56.00
46159;DHT22;31888;44.512;26.104;2023-08-20T14:00:38;35.00;55.90
46159;DHT22;31888;44.512;26.104;2023-08-20T14:03:03;35.00;55.80
46159;DHT22;31888;44.512;26.104;2023-08-20T14:05:27;35.00;55.80
46159;DHT22;31888;44.512;26.104;2023-08-20T14:07:52;35.00;55.50
46159;DHT22;31888;44.512;26.104;2023-08-20T14:10:17;35.00;55.10
46159;DHT22;31888;44.512;26.104;2023-08-20T14:12:41;35.00;55.20
46159;DHT22;31888;44.512;26.104;2023-08-20T14:15:07;34.90;55.30
46159;DHT22;31888;44.512;26.104;2023-08-20T14:17:31;34.80;54.80
46159;DHT22;31888;44.512;26.104;2023-08-20T14:19:55;34.90;55.00
46159;DHT22;31888;44.512;26.104;2023-08-20T14:22:19;35.00;55.10
46159;DHT22;31888;44.512;26.104;2023-08-20T14:24:43;34.90;54.70
46159;DHT22;31888;44.512;26.104;2023-08-20T14:27:08;34.80;54.60
46159;DHT22;31888;44.512;26.104;2023-08-20T14:29:32;34.80;55.00
46159;DHT22;31888;44.512;26.104;2023-08-20T14:31:56;34.90;55.00
46159;DHT22;31888;44.512;26.104;2023-08-20T14:34:20;34.90;55.00
46159;DHT22;31888;44.512;26.104;2023-08-20T14:36:43;34.90;55.20
46159;DHT22;31888;44.512;26.104;2023-08-20T14:39:07;34.80;55.50
46159;DHT22;31888;44.512;26.104;2023-08-20T14:41:32;34.80;55.30
46159;DHT22;31888;44.512;26.104;2023-08-20T14:43:57;34.80;55.80
46159;DHT22;31888;44.512;26.104;2023-08-20T14:46:21;34.80;55.70
46159;DHT22;31888;44.512;26.104;2023-08-20T14:48:45;34.70;55.90
46159;DHT22;31888;44.512;26.104;2023-08-20T14:51:09;34.70;55.40
46159;DHT22;31888;44.512;26.104;2023-08-20T14:53:33;34.70;55.90
46159;DHT22;31888;44.512;26.104;2023-08-20T14:55:56;34.70;56.10
46159;DHT22;31888;44.512;26.104;2023-08-20T14:58:20;34.70;56.20
46159;DHT22;31888;44.512;26.104;2023-08-20T15:00:45;34.70;55.60
46159;DHT22;31888;44.512;26.104;2023-08-20T15:03:11;34.60;55.40